sensor_id;sensor_type;location;lat;lon;timestamp;temperature;humidity
37646;DHT22;23489;49.600;6.138;2022-09-09T00:09:49;14.20;99.90
37646;DHT22;23489;49.600;6.138;2022-09-09T00:12:39;14.20;99.90
37646;DHT22;23489;49.600;6.138;2022-09-09T00:17:35;14.30;99.90
37646;DHT22;23489;49.600;6.138;2022-09-09T00:22:36;14.30;99.90
37646;DHT22;23489;49.600;6.138;2022-09-09T00:25:11;14.40;99.90
37646;DHT22;23489;49.600;6.138;2022-09-09T00:27:45;14.50;99.90
37646;DHT22;23489;49.600;6.138;2022-09-09T00:32:36;14.60;99.90
37646;DHT22;23489;49.600;6.138;2022-09-09T00:35:03;14.70;99.90
37646;DHT22;23489;49.600;6.138;2022-09-09T00:37:36;14.80;99.90
37646;DHT22;23489;49.600;6.138;2022-09-09T00:40:05;14.80;99.90
37646;DHT22;23489;49.600;6.138;2022-09-09T00:42:41;14.90;99.90
37646;DHT22;23489;49.600;6.138;2022-09-09T00:47:52;15.10;99.90
37646;DHT22;23489;49.600;6.138;2022-09-09T00:53:07;15.20;99.90
37646;DHT22;23489;49.600;6.138;2022-09-09T00:55:45;15.30;99.90
37646;DHT22;23489;49.600;6.138;2022-09-09T00:58:13;15.30;99.90
37646;DHT22;23489;49.600;6.138;2022-09-09T01:00:43;15.30;99.90
37646;DHT22;23489;49.600;6.138;2022-09-09T01:03:22;15.30;99.90
37646;DHT22;23489;49.600;6.138;2022-09-09T01:06:02;15.30;99.90
37646;DHT22;23489;49.600;6.138;2022-09-09T01:11:20;15.30;99.90
37646;DHT22;23489;49.600;6.138;2022-09-09T01:13:46;15.30;99.90
37646;DHT22;23489;49.600;6.138;2022-09-09T01:16:13;15.20;99.90
37646;DHT22;23489;49.600;6.138;2022-09-09T01:18:44;15.30;99.90
37646;DHT22;23489;49.600;6.138;2022-09-09T01:27:01;15.30;99.90
37646;DHT22;23489;49.600;6.138;2022-09-09T01:29:09;15.30;99.90
37646;DHT22;23489;49.600;6.138;2022-09-09T01:31:39;15.30;99.90
37646;DHT22;23489;49.600;6.138;2022-09-09T01:34:13;15.30;99.90
37646;DHT22;23489;49.600;6.138;2022-09-09T01:39:06;15.20;99.90
37646;DHT22;23489;49.600;6.138;2022-09-09T01:41:32;15.20;99.90
37646;DHT22;23489;49.600;6.138;2022-09-09T01:44:02;15.20;99.90
37646;DHT22;23489;49.600;6.138;2022-09-09T01:46:32;15.20;99.90
37646;DHT22;23489;49.600;6.138;2022-09-09T01:48:59;15.20;99.90
37646;DHT22;23489;49.600;6.138;2022-09-09T01:51:27;15.20;99.90
37646;DHT22;23489;49.600;6.138;2022-09-09T01:53:53;15.20;99.90
37646;DHT22;23489;49.600;6.138;2022-09-09T02:01:17;15.20;99.90
37646;DHT22;23489;49.600;6.138;2022-09-09T02:03:51;15.20;99.90
37646;DHT22;23489;49.600;6.138;2022-09-09T02:08:50;15.20;99.90
37646;DHT22;23489;49.600;6.138;2022-09-09T02:11:18;15.10;99.90
37646;DHT22;23489;49.600;6.138;2022-09-09T02:14:00;15.10;99.90
37646;DHT22;23489;49.600;6.138;2022-09-09T02:19:04;15.10;99.90
37646;DHT22;23489;49.600;6.138;2022-09-09T02:21:43;15.10;99.90
37646;DHT22;23489;49.600;6.138;2022-09-09T02:24:10;15.10;99.90
37646;DHT22;23489;49.600;6.138;2022-09-09T02:26:42;15.20;99.90
37646;DHT22;23489;49.600;6.138;2022-09-09T02:29:13;15.20;99.90
37646;DHT22;23489;49.600;6.138;2022-09-09T02:31:39;15.20;99.90
37646;DHT22;23489;49.600;6.138;2022-09-09T02:34:12;15.20;99.90
37646;DHT22;23489;49.600;6.138;2022-09-09T02:36:39;15.10;99.90
37646;DHT22;23489;49.600;6.138;2022-09-09T02:39:07;15.10;99.90
37646;DHT22;23489;49.600;6.138;2022-09-09T02:41:35;15.00;99.90
37646;DHT22;23489;49.600;6.138;2022-09-09T02:44:01;15.00;99.90
37646;DHT22;23489;49.600;6.138;2022-09-09T02:49:57;15.00;99.90
37646;DHT22;23489;49.600;6.138;2022-09-09T02:51:58;15.00;99.90
37646;DHT22;23489;49.600;6.138;2022-09-09T02:54:32;15.00;99.90
37646;DHT22;23489;49.600;6.138;2022-09-09T02:57:06;15.10;99.90
37646;DHT22;23489;49.600;6.138;2022-09-09T02:59:37;15.10;99.90
37646;DHT22;23489;49.600;6.138;2022-09-09T03:02:03;15.10;99.90
37646;DHT22;23489;49.600;6.138;2022-09-09T03:04:28;15.20;99.90
37646;DHT22;23489;49.600;6.138;2022-09-09T03:06:56;15.20;99.90
37646;DHT22;23489;49.600;6.138;2022-09-09T03:09:22;15.20;99.90
37646;DHT22;23489;49.600;6.138;2022-09-09T03:11:49;15.30;99.90
37646;DHT22;23489;49.600;6.138;2022-09-09T03:14:15;15.30;99.90
37646;DHT22;23489;49.600;6.138;2022-09-09T03:16:41;15.30;99.90
37646;DHT22;23489;49.600;6.138;2022-09-09T03:19:08;15.30;99.90
37646;DHT22;23489;49.600;6.138;2022-09-09T03:21:34;15.30;99.90
37646;DHT22;23489;49.600;6.138;2022-09-09T03:24:01;15.30;99.90
37646;DHT22;23489;49.600;6.138;2022-09-09T03:26:29;15.30;99.90
37646;DHT22;23489;49.600;6.138;2022-09-09T03:28:55;15.30;99.90
37646;DHT22;23489;49.600;6.138;2022-09-09T03:31:23;15.30;99.90
37646;DHT22;23489;49.600;6.138;2022-09-09T03:33:49;15.40;99.90
37646;DHT22;23489;49.600;6.138;2022-09-09T03:36:17;15.50;99.90
37646;DHT22;23489;49.600;6.138;2022-09-09T03:38:43;15.40;99.90
37646;DHT22;23489;49.600;6.138;2022-09-09T03:41:09;15.50;99.90
37646;DHT22;23489;49.600;6.138;2022-09-09T03:43:37;15.50;99.90
37646;DHT22;23489;49.600;6.138;2022-09-09T03:46:03;15.50;99.90
37646;DHT22;23489;49.600;6.138;2022-09-09T03:48:30;15.50;99.90
37646;DHT22;23489;49.600;6.138;2022-09-09T03:50:56;15.60;99.90
37646;DHT22;23489;49.600;6.138;2022-09-09T03:53:24;15.60;99.90
37646;DHT22;23489;49.600;6.138;2022-09-09T03:55:51;15.50;99.90
37646;DHT22;23489;49.600;6.138;2022-09-09T03:58:22;15.50;99.90
37646;DHT22;23489;49.600;6.138;2022-09-09T04:00:57;15.50;99.90
37646;DHT22;23489;49.600;6.138;2022-09-09T04:03:23;15.50;99.90
37646;DHT22;23489;49.600;6.138;2022-09-09T04:05:53;15.40;99.90
37646;DHT22;23489;49.600;6.138;2022-09-09T04:08:19;15.40;99.90
37646;DHT22;23489;49.600;6.138;2022-09-09T04:10:49;15.40;99.90
37646;DHT22;23489;49.600;6.138;2022-09-09T04:13:16;15.30;99.90
37646;DHT22;23489;49.600;6.138;2022-09-09T04:15:44;15.20;99.90
37646;DHT22;23489;49.600;6.138;2022-09-09T04:18:10;15.20;99.90
37646;DHT22;23489;49.600;6.138;2022-09-09T04:20:37;15.10;99.90
37646;DHT22;23489;49.600;6.138;2022-09-09T04:23:03;15.10;99.90
37646;DHT22;23489;49.600;6.138;2022-09-09T04:25:29;15.10;99.90
37646;DHT22;23489;49.600;6.138;2022-09-09T04:27:56;15.20;99.90
37646;DHT22;23489;49.600;6.138;2022-09-09T04:30:22;15.10;99.90
37646;DHT22;23489;49.600;6.138;2022-09-09T04:32:48;15.20;99.90
37646;DHT22;23489;49.600;6.138;2022-09-09T04:35:14;15.20;99.90
37646;DHT22;23489;49.600;6.138;2022-09-09T04:37:40;15.20;99.90
37646;DHT22;23489;49.600;6.138;2022-09-09T04:40:06;15.30;99.90
37646;DHT22;23489;49.600;6.138;2022-09-09T04:42:36;15.30;99.90
37646;DHT22;23489;49.600;6.138;2022-09-09T04:45:01;15.30;99.90
37646;DHT22;23489;49.600;6.138;2022-09-09T04:47:27;15.30;99.90
37646;DHT22;23489;49.600;6.138;2022-09-09T04:49:53;15.30;99.90
37646;DHT22;23489;49.600;6.138;2022-09-09T04:52:20;15.30;99.90
37646;DHT22;23489;49.600;6.138;2022-09-09T04:54:45;15.30;99.90
37646;DHT22;23489;49.600;6.138;2022-09-09T04:57:11;15.30;99.90
37646;DHT22;23489;49.600;6.138;2022-09-09T04:59:37;15.30;99.90
37646;DHT22;23489;49.600;6.138;2022-09-09T05:02:03;15.30;99.90
37646;DHT22;23489;49.600;6.138;2022-09-09T05:04:29;15.30;99.90
37646;DHT22;23489;49.600;6.138;2022-09-09T05:06:55;15.30;99.90
37646;DHT22;23489;49.600;6.138;2022-09-09T05:09:22;15.30;99.90
37646;DHT22;23489;49.600;6.138;2022-09-09T05:11:47;15.30;99.90
37646;DHT22;23489;49.600;6.138;2022-09-09T05:14:23;15.30;99.90
37646;DHT22;23489;49.600;6.138;2022-09-09T05:16:49;15.30;99.90
37646;DHT22;23489;49.600;6.138;2022-09-09T05:19:15;15.30;99.90
37646;DHT22;23489;49.600;6.138;2022-09-09T05:21:46;15.30;99.90
37646;DHT22;23489;49.600;6.138;2022-09-09T05:24:14;15.40;99.90
37646;DHT22;23489;49.600;6.138;2022-09-09T05:26:41;15.40;99.90
37646;DHT22;23489;49.600;6.138;2022-09-09T05:29:08;15.40;99.90
37646;DHT22;23489;49.600;6.138;2022-09-09T05:31:33;15.40;99.90
37646;DHT22;23489;49.600;6.138;2022-09-09T05:34:02;15.40;99.90
37646;DHT22;23489;49.600;6.138;2022-09-09T05:36:28;15.40;99.90
37646;DHT22;23489;49.600;6.138;2022-09-09T05:38:55;15.40;99.90
37646;DHT22;23489;49.600;6.138;2022-09-09T05:41:21;15.40;99.90
37646;DHT22;23489;49.600;6.138;2022-09-09T05:43:49;15.50;99.90
37646;DHT22;23489;49.600;6.138;2022-09-09T05:46:16;15.50;99.90
37646;DHT22;23489;49.600;6.138;2022-09-09T05:48:43;15.60;99.90
37646;DHT22;23489;49.600;6.138;2022-09-09T05:51:12;15.60;99.90
37646;DHT22;23489;49.600;6.138;2022-09-09T05:53:41;15.60;99.90
37646;DHT22;23489;49.600;6.138;2022-09-09T05:56:09;15.70;99.90
37646;DHT22;23489;49.600;6.138;2022-09-09T05:58:36;15.70;99.90
37646;DHT22;23489;49.600;6.138;2022-09-09T06:01:06;15.60;99.90
37646;DHT22;23489;49.600;6.138;2022-09-09T06:03:35;15.70;99.90
37646;DHT22;23489;49.600;6.138;2022-09-09T06:06:02;15.60;99.90
37646;DHT22;23489;49.600;6.138;2022-09-09T06:08:31;15.70;99.90
37646;DHT22;23489;49.600;6.138;2022-09-09T06:11:00;15.70;99.90
37646;DHT22;23489;49.600;6.138;2022-09-09T06:13:29;15.80;99.90
37646;DHT22;23489;49.600;6.138;2022-09-09T06:15:55;15.80;99.90
37646;DHT22;23489;49.600;6.138;2022-09-09T06:18:21;15.80;99.90
37646;DHT22;23489;49.600;6.138;2022-09-09T06:20:54;15.80;99.90
37646;DHT22;23489;49.600;6.138;2022-09-09T06:23:19;15.90;99.90
37646;DHT22;23489;49.600;6.138;2022-09-09T06:25:45;16.00;99.90
37646;DHT22;23489;49.600;6.138;2022-09-09T06:28:11;16.10;99.90
37646;DHT22;23489;49.600;6.138;2022-09-09T06:30:37;16.10;99.90
37646;DHT22;23489;49.600;6.138;2022-09-09T06:33:04;16.20;99.90
37646;DHT22;23489;49.600;6.138;2022-09-09T06:35:30;16.30;99.90
37646;DHT22;23489;49.600;6.138;2022-09-09T06:37:56;16.40;99.90
37646;DHT22;23489;49.600;6.138;2022-09-09T06:40:24;16.40;99.90
37646;DHT22;23489;49.600;6.138;2022-09-09T06:42:50;16.40;99.90
37646;DHT22;23489;49.600;6.138;2022-09-09T06:45:23;16.40;99.90
37646;DHT22;23489;49.600;6.138;2022-09-09T06:47:54;16.40;99.90
37646;DHT22;23489;49.600;6.138;2022-09-09T06:50:21;16.40;99.90
37646;DHT22;23489;49.600;6.138;2022-09-09T06:52:48;16.40;99.90
37646;DHT22;23489;49.600;6.138;2022-09-09T06:55:13;16.40;99.90
37646;DHT22;23489;49.600;6.138;2022-09-09T06:57:41;16.50;99.90
37646;DHT22;23489;49.600;6.138;2022-09-09T07:00:15;16.60;99.90
37646;DHT22;23489;49.600;6.138;2022-09-09T07:02:40;16.60;99.90
37646;DHT22;23489;49.600;6.138;2022-09-09T07:05:08;16.70;99.90
37646;DHT22;23489;49.600;6.138;2022-09-09T07:07:34;16.80;99.90
37646;DHT22;23489;49.600;6.138;2022-09-09T07:10:00;16.70;99.90
37646;DHT22;23489;49.600;6.138;2022-09-09T07:12:26;16.60;99.90
37646;DHT22;23489;49.600;6.138;2022-09-09T07:14:57;16.60;99.90
37646;DHT22;23489;49.600;6.138;2022-09-09T07:17:22;16.60;99.90
37646;DHT22;23489;49.600;6.138;2022-09-09T07:19:48;16.80;99.90
37646;DHT22;23489;49.600;6.138;2022-09-09T07:22:16;17.50;99.90
37646;DHT22;23489;49.600;6.138;2022-09-09T07:24:42;17.90;99.90
37646;DHT22;23489;49.600;6.138;2022-09-09T07:27:09;18.10;99.90
37646;DHT22;23489;49.600;6.138;2022-09-09T07:29:35;18.10;99.90
37646;DHT22;23489;49.600;6.138;2022-09-09T07:32:02;18.00;99.90
37646;DHT22;23489;49.600;6.138;2022-09-09T07:34:32;18.00;99.90
37646;DHT22;23489;49.600;6.138;2022-09-09T07:36:58;17.90;99.90
37646;DHT22;23489;49.600;6.138;2022-09-09T07:39:24;17.70;99.90
37646;DHT22;23489;49.600;6.138;2022-09-09T07:41:52;17.80;99.90
37646;DHT22;23489;49.600;6.138;2022-09-09T07:44:22;17.90;99.90
37646;DHT22;23489;49.600;6.138;2022-09-09T07:46:53;17.90;99.90
37646;DHT22;23489;49.600;6.138;2022-09-09T07:49:25;17.90;99.90
37646;DHT22;23489;49.600;6.138;2022-09-09T07:51:51;18.10;99.90
37646;DHT22;23489;49.600;6.138;2022-09-09T07:54:18;18.00;99.90
37646;DHT22;23489;49.600;6.138;2022-09-09T07:56:48;18.00;99.90
37646;DHT22;23489;49.600;6.138;2022-09-09T07:59:15;18.50;99.90
37646;DHT22;23489;49.600;6.138;2022-09-09T08:01:43;19.80;99.90
37646;DHT22;23489;49.600;6.138;2022-09-09T08:04:15;20.10;99.90
37646;DHT22;23489;49.600;6.138;2022-09-09T08:06:43;20.00;99.90
37646;DHT22;23489;49.600;6.138;2022-09-09T08:09:09;19.70;99.90
37646;DHT22;23489;49.600;6.138;2022-09-09T08:11:36;19.30;99.90
37646;DHT22;23489;49.600;6.138;2022-09-09T08:14:03;18.90;99.90
37646;DHT22;23489;49.600;6.138;2022-09-09T08:16:30;18.70;99.90
37646;DHT22;23489;49.600;6.138;2022-09-09T08:18:57;18.40;99.90
37646;DHT22;23489;49.600;6.138;2022-09-09T08:21:24;18.20;99.90
37646;DHT22;23489;49.600;6.138;2022-09-09T08:23:51;18.10;99.90
37646;DHT22;23489;49.600;6.138;2022-09-09T08:26:25;18.00;99.90
37646;DHT22;23489;49.600;6.138;2022-09-09T08:28:53;18.20;99.90
37646;DHT22;23489;49.600;6.138;2022-09-09T08:31:20;18.80;99.90
37646;DHT22;23489;49.600;6.138;2022-09-09T08:33:47;19.10;99.90
37646;DHT22;23489;49.600;6.138;2022-09-09T08:36:16;18.90;99.90
37646;DHT22;23489;49.600;6.138;2022-09-09T08:38:42;18.70;99.90
37646;DHT22;23489;49.600;6.138;2022-09-09T08:43:58;18.40;99.90
37646;DHT22;23489;49.600;6.138;2022-09-09T08:46:27;18.20;99.90
37646;DHT22;23489;49.600;6.138;2022-09-09T08:48:58;18.20;99.90
37646;DHT22;23489;49.600;6.138;2022-09-09T08:51:27;19.10;99.90
37646;DHT22;23489;49.600;6.138;2022-09-09T08:53:53;20.00;99.90
37646;DHT22;23489;49.600;6.138;2022-09-09T08:56:22;20.80;99.90
37646;DHT22;23489;49.600;6.138;2022-09-09T08:58:53;21.00;99.90
37646;DHT22;23489;49.600;6.138;2022-09-09T09:09:04;20.30;99.90
37646;DHT22;23489;49.600;6.138;2022-09-09T09:11:38;20.20;99.90
37646;DHT22;23489;49.600;6.138;2022-09-09T09:14:17;21.50;99.90
37646;DHT22;23489;49.600;6.138;2022-09-09T09:16:56;22.40;99.90
37646;DHT22;23489;49.600;6.138;2022-09-09T09:19:23;22.90;99.90
37646;DHT22;23489;49.600;6.138;2022-09-09T09:21:55;22.30;99.90
37646;DHT22;23489;49.600;6.138;2022-09-09T09:26:50;21.10;99.90
37646;DHT22;23489;49.600;6.138;2022-09-09T09:29:18;21.00;99.90
37646;DHT22;23489;49.600;6.138;2022-09-09T09:31:45;21.20;99.90
37646;DHT22;23489;49.600;6.138;2022-09-09T09:34:13;21.90;99.90
37646;DHT22;23489;49.600;6.138;2022-09-09T09:36:41;23.80;99.90
37646;DHT22;23489;49.600;6.138;2022-09-09T09:39:21;23.70;99.90
37646;DHT22;23489;49.600;6.138;2022-09-09T09:41:48;23.50;99.90
37646;DHT22;23489;49.600;6.138;2022-09-09T09:44:31;22.90;99.90
37646;DHT22;23489;49.600;6.138;2022-09-09T09:47:05;22.30;99.90
37646;DHT22;23489;49.600;6.138;2022-09-09T09:49:31;22.00;99.90
37646;DHT22;23489;49.600;6.138;2022-09-09T09:52:01;22.00;99.90
37646;DHT22;23489;49.600;6.138;2022-09-09T09:54:38;22.10;99.90
37646;DHT22;23489;49.600;6.138;2022-09-09T09:57:11;22.10;99.90
37646;DHT22;23489;49.600;6.138;2022-09-09T09:59:38;22.70;99.90
37646;DHT22;23489;49.600;6.138;2022-09-09T10:02:37;23.00;99.90
37646;DHT22;23489;49.600;6.138;2022-09-09T10:05:15;23.50;99.90
37646;DHT22;23489;49.600;6.138;2022-09-09T10:07:44;23.40;99.80
37646;DHT22;23489;49.600;6.138;2022-09-09T10:10:21;23.00;99.90
37646;DHT22;23489;49.600;6.138;2022-09-09T10:17:58;23.50;99.90
37646;DHT22;23489;49.600;6.138;2022-09-09T10:20:30;24.00;98.70
37646;DHT22;23489;49.600;6.138;2022-09-09T10:23:07;23.80;98.40
37646;DHT22;23489;49.600;6.138;2022-09-09T10:28:18;24.70;97.50
37646;DHT22;23489;49.600;6.138;2022-09-09T10:41:11;28.30;86.50
37646;DHT22;23489;49.600;6.138;2022-09-09T10:56:39;28.40;81.70
37646;DHT22;23489;49.600;6.138;2022-09-09T10:59:27;27.20;84.40
37646;DHT22;23489;49.600;6.138;2022-09-09T11:01:53;25.90;87.60
37646;DHT22;23489;49.600;6.138;2022-09-09T11:04:32;25.10;90.20
37646;DHT22;23489;49.600;6.138;2022-09-09T11:07:00;24.40;91.50
37646;DHT22;23489;49.600;6.138;2022-09-09T11:09:30;23.90;93.10
37646;DHT22;23489;49.600;6.138;2022-09-09T11:11:58;23.50;95.10
37646;DHT22;23489;49.600;6.138;2022-09-09T11:16:57;23.40;96.20
37646;DHT22;23489;49.600;6.138;2022-09-09T11:19:45;23.40;96.50
37646;DHT22;23489;49.600;6.138;2022-09-09T11:24:49;22.80;97.20
37646;DHT22;23489;49.600;6.138;2022-09-09T11:27:35;22.50;97.60
37646;DHT22;23489;49.600;6.138;2022-09-09T11:40:28;21.40;99.70
37646;DHT22;23489;49.600;6.138;2022-09-09T11:43:54;21.60;99.30
37646;DHT22;23489;49.600;6.138;2022-09-09T11:45:55;21.80;98.80
37646;DHT22;23489;49.600;6.138;2022-09-09T11:48:29;22.00;98.50
37646;DHT22;23489;49.600;6.138;2022-09-09T11:51:01;21.90;98.90
37646;DHT22;23489;49.600;6.138;2022-09-09T11:53:27;22.10;98.50
37646;DHT22;23489;49.600;6.138;2022-09-09T11:56:06;22.20;98.60
37646;DHT22;23489;49.600;6.138;2022-09-09T11:58:42;22.00;98.50
37646;DHT22;23489;49.600;6.138;2022-09-09T12:04:09;21.70;99.90
37646;DHT22;23489;49.600;6.138;2022-09-09T12:11:46;22.30;98.20
37646;DHT22;23489;49.600;6.138;2022-09-09T12:17:20;22.40;99.10
37646;DHT22;23489;49.600;6.138;2022-09-09T12:19:47;22.60;99.10
37646;DHT22;23489;49.600;6.138;2022-09-09T12:25:08;22.50;99.10
37646;DHT22;23489;49.600;6.138;2022-09-09T12:27:36;22.50;98.80
37646;DHT22;23489;49.600;6.138;2022-09-09T12:30:14;22.50;98.80
37646;DHT22;23489;49.600;6.138;2022-09-09T12:32:40;22.50;98.70
37646;DHT22;23489;49.600;6.138;2022-09-09T12:35:12;22.30;98.80
37646;DHT22;23489;49.600;6.138;2022-09-09T12:37:40;22.30;99.10
37646;DHT22;23489;49.600;6.138;2022-09-09T12:40:24;22.50;98.40
37646;DHT22;23489;49.600;6.138;2022-09-09T12:42:50;22.30;97.70
37646;DHT22;23489;49.600;6.138;2022-09-09T12:47:44;22.20;97.10
37646;DHT22;23489;49.600;6.138;2022-09-09T12:50:33;22.10;97.40
37646;DHT22;23489;49.600;6.138;2022-09-09T12:52:58;22.10;97.80
37646;DHT22;23489;49.600;6.138;2022-09-09T12:55:27;22.20;98.10
37646;DHT22;23489;49.600;6.138;2022-09-09T12:57:54;22.40;98.40
37646;DHT22;23489;49.600;6.138;2022-09-09T13:00:21;22.60;98.40
37646;DHT22;23489;49.600;6.138;2022-09-09T13:02:49;22.50;98.30
37646;DHT22;23489;49.600;6.138;2022-09-09T13:05:24;22.60;98.50
37646;DHT22;23489;49.600;6.138;2022-09-09T13:07:50;22.70;97.80
37646;DHT22;23489;49.600;6.138;2022-09-09T13:10:21;22.80;96.60
37646;DHT22;23489;49.600;6.138;2022-09-09T13:12:48;23.00;96.60
37646;DHT22;23489;49.600;6.138;2022-09-09T13:15:18;22.80;96.40
37646;DHT22;23489;49.600;6.138;2022-09-09T13:17:49;22.50;96.80
37646;DHT22;23489;49.600;6.138;2022-09-09T13:20:18;22.00;97.60
37646;DHT22;23489;49.600;6.138;2022-09-09T13:22:44;21.60;98.70
37646;DHT22;23489;49.600;6.138;2022-09-09T13:27:41;18.20;99.90
37646;DHT22;23489;49.600;6.138;2022-09-09T13:35:49;15.50;99.90
37646;DHT22;23489;49.600;6.138;2022-09-09T13:38:16;15.20;99.90
37646;DHT22;23489;49.600;6.138;2022-09-09T13:43:29;15.00;99.90
37646;DHT22;23489;49.600;6.138;2022-09-09T13:45:59;15.00;99.90
37646;DHT22;23489;49.600;6.138;2022-09-09T13:48:25;15.00;99.90
37646;DHT22;23489;49.600;6.138;2022-09-09T13:50:58;15.00;99.90
37646;DHT22;23489;49.600;6.138;2022-09-09T13:53:24;15.00;99.90
37646;DHT22;23489;49.600;6.138;2022-09-09T13:55:50;15.00;99.90
37646;DHT22;23489;49.600;6.138;2022-09-09T13:58:17;15.00;99.90
37646;DHT22;23489;49.600;6.138;2022-09-09T14:00:45;15.10;99.90
37646;DHT22;23489;49.600;6.138;2022-09-09T14:03:11;15.20;99.90
37646;DHT22;23489;49.600;6.138;2022-09-09T14:05:37;15.30;99.90
37646;DHT22;23489;49.600;6.138;2022-09-09T14:08:04;15.40;99.90
37646;DHT22;23489;49.600;6.138;2022-09-09T14:10:30;15.40;99.90
37646;DHT22;23489;49.600;6.138;2022-09-09T14:12:55;15.50;99.90
37646;DHT22;23489;49.600;6.138;2022-09-09T14:15:21;15.70;99.90
37646;DHT22;23489;49.600;6.138;2022-09-09T14:17:47;15.80;99.90
37646;DHT22;23489;49.600;6.138;2022-09-09T14:20:14;15.90;99.90
37646;DHT22;23489;49.600;6.138;2022-09-09T14:22:41;16.10;99.90
37646;DHT22;23489;49.600;6.138;2022-09-09T14:25:07;16.30;99.90
37646;DHT22;23489;49.600;6.138;2022-09-09T14:27:33;16.60;99.90
37646;DHT22;23489;49.600;6.138;2022-09-09T14:29:58;16.80;99.90
37646;DHT22;23489;49.600;6.138;2022-09-09T14:32:25;17.00;99.90
37646;DHT22;23489;49.600;6.138;2022-09-09T14:34:51;17.20;99.90
37646;DHT22;23489;49.600;6.138;2022-09-09T14:37:17;17.50;99.90
37646;DHT22;23489;49.600;6.138;2022-09-09T14:39:43;17.90;99.90
37646;DHT22;23489;49.600;6.138;2022-09-09T14:42:10;18.10;99.90
37646;DHT22;23489;49.600;6.138;2022-09-09T14:44:39;18.30;99.90
37646;DHT22;23489;49.600;6.138;2022-09-09T14:47:06;18.50;99.90
37646;DHT22;23489;49.600;6.138;2022-09-09T14:49:36;18.60;99.90
37646;DHT22;23489;49.600;6.138;2022-09-09T14:52:03;18.70;99.90
37646;DHT22;23489;49.600;6.138;2022-09-09T14:54:28;18.80;99.90
37646;DHT22;23489;49.600;6.138;2022-09-09T14:56:54;18.90;99.90
37646;DHT22;23489;49.600;6.138;2022-09-09T14:59:20;19.00;99.90
37646;DHT22;23489;49.600;6.138;2022-09-09T15:01:45;19.20;99.90
37646;DHT22;23489;49.600;6.138;2022-09-09T15:04:12;19.30;99.90
37646;DHT22;23489;49.600;6.138;2022-09-09T15:06:37;19.40;99.90
37646;DHT22;23489;49.600;6.138;2022-09-09T15:09:04;19.40;99.90
37646;DHT22;23489;49.600;6.138;2022-09-09T15:11:31;19.20;99.90
37646;DHT22;23489;49.600;6.138;2022-09-09T15:13:58;19.10;99.90
37646;DHT22;23489;49.600;6.138;2022-09-09T15:16:27;19.00;99.90
37646;DHT22;23489;49.600;6.138;2022-09-09T15:18:53;18.90;99.90
37646;DHT22;23489;49.600;6.138;2022-09-09T15:21:20;18.80;99.90
37646;DHT22;23489;49.600;6.138;2022-09-09T15:23:46;18.80;99.90
37646;DHT22;23489;49.600;6.138;2022-09-09T15:26:13;18.70;99.90
37646;DHT22;23489;49.600;6.138;2022-09-09T15:28:39;18.70;99.90
37646;DHT22;23489;49.600;6.138;2022-09-09T15:31:06;18.70;99.90
37646;DHT22;23489;49.600;6.138;2022-09-09T15:33:32;18.60;99.90
37646;DHT22;23489;49.600;6.138;2022-09-09T15:35:58;18.50;99.90
37646;DHT22;23489;49.600;6.138;2022-09-09T15:38:24;18.20;99.90
37646;DHT22;23489;49.600;6.138;2022-09-09T15:40:53;17.90;99.90
37646;DHT22;23489;49.600;6.138;2022-09-09T15:43:19;17.80;99.90
37646;DHT22;23489;49.600;6.138;2022-09-09T15:45:46;17.40;99.90
37646;DHT22;23489;49.600;6.138;2022-09-09T15:48:14;17.20;99.90
37646;DHT22;23489;49.600;6.138;2022-09-09T15:50:40;17.00;99.90
37646;DHT22;23489;49.600;6.138;2022-09-09T15:53:05;16.80;99.90
37646;DHT22;23489;49.600;6.138;2022-09-09T15:55:31;16.70;99.90
37646;DHT22;23489;49.600;6.138;2022-09-09T15:57:56;16.50;99.90
37646;DHT22;23489;49.600;6.138;2022-09-09T16:00:23;16.40;99.90
37646;DHT22;23489;49.600;6.138;2022-09-09T16:02:49;16.30;99.90
37646;DHT22;23489;49.600;6.138;2022-09-09T16:05:15;16.50;99.90
37646;DHT22;23489;49.600;6.138;2022-09-09T16:07:41;16.50;99.90
37646;DHT22;23489;49.600;6.138;2022-09-09T16:10:08;16.70;99.90
37646;DHT22;23489;49.600;6.138;2022-09-09T16:12:34;16.60;99.90
37646;DHT22;23489;49.600;6.138;2022-09-09T16:14:59;16.70;99.90
37646;DHT22;23489;49.600;6.138;2022-09-09T16:17:25;16.60;99.90
37646;DHT22;23489;49.600;6.138;2022-09-09T16:19:52;16.70;99.90
37646;DHT22;23489;49.600;6.138;2022-09-09T16:22:19;16.70;99.90
37646;DHT22;23489;49.600;6.138;2022-09-09T16:24:45;16.70;99.90
37646;DHT22;23489;49.600;6.138;2022-09-09T16:27:10;16.80;99.90
37646;DHT22;23489;49.600;6.138;2022-09-09T16:29:36;16.80;99.90
37646;DHT22;23489;49.600;6.138;2022-09-09T16:32:02;16.80;99.90
37646;DHT22;23489;49.600;6.138;2022-09-09T16:34:28;16.50;99.90
37646;DHT22;23489;49.600;6.138;2022-09-09T16:36:53;16.20;99.90
37646;DHT22;23489;49.600;6.138;2022-09-09T16:39:19;16.00;99.90
37646;DHT22;23489;49.600;6.138;2022-09-09T16:41:46;15.80;99.90
37646;DHT22;23489;49.600;6.138;2022-09-09T16:44:13;15.80;99.90
37646;DHT22;23489;49.600;6.138;2022-09-09T16:46:40;15.80;99.90
37646;DHT22;23489;49.600;6.138;2022-09-09T16:49:06;15.90;99.90
37646;DHT22;23489;49.600;6.138;2022-09-09T16:51:45;15.90;99.90
37646;DHT22;23489;49.600;6.138;2022-09-09T16:54:12;15.80;99.90
37646;DHT22;23489;49.600;6.138;2022-09-09T16:56:39;15.80;99.90
37646;DHT22;23489;49.600;6.138;2022-09-09T16:59:09;15.90;99.90
37646;DHT22;23489;49.600;6.138;2022-09-09T17:01:36;15.90;99.90
37646;DHT22;23489;49.600;6.138;2022-09-09T17:04:04;16.00;99.90
37646;DHT22;23489;49.600;6.138;2022-09-09T17:06:31;16.10;99.90
37646;DHT22;23489;49.600;6.138;2022-09-09T17:08:58;16.20;99.90
37646;DHT22;23489;49.600;6.138;2022-09-09T17:11:24;16.30;99.90
37646;DHT22;23489;49.600;6.138;2022-09-09T17:13:51;16.30;99.90
37646;DHT22;23489;49.600;6.138;2022-09-09T17:16:18;16.40;99.90
37646;DHT22;23489;49.600;6.138;2022-09-09T17:18:43;16.40;99.90
37646;DHT22;23489;49.600;6.138;2022-09-09T17:21:14;16.30;99.90
37646;DHT22;23489;49.600;6.138;2022-09-09T17:23:41;16.30;99.90
37646;DHT22;23489;49.600;6.138;2022-09-09T17:26:08;16.20;99.90
37646;DHT22;23489;49.600;6.138;2022-09-09T17:28:38;16.20;99.90
37646;DHT22;23489;49.600;6.138;2022-09-09T17:31:04;16.00;99.90
37646;DHT22;23489;49.600;6.138;2022-09-09T17:33:32;15.90;99.90
37646;DHT22;23489;49.600;6.138;2022-09-09T17:35:58;15.80;99.90
37646;DHT22;23489;49.600;6.138;2022-09-09T17:38:25;15.70;99.90
37646;DHT22;23489;49.600;6.138;2022-09-09T17:41:07;15.70;99.90
37646;DHT22;23489;49.600;6.138;2022-09-09T17:43:33;15.60;99.90
37646;DHT22;23489;49.600;6.138;2022-09-09T17:46:08;15.50;99.90
37646;DHT22;23489;49.600;6.138;2022-09-09T17:48:34;15.50;99.90
37646;DHT22;23489;49.600;6.138;2022-09-09T17:51:05;15.40;99.90